Time;durP1;ratioP1;P1;durP2;ratioP2;P2;SDS_P1;SDS_P2;PMS_P1;PMS_P2;Temp;Humidity;BMP_temperature;BMP_pressure;BME280_temperature;BME280_humidity;BME280_pressure;Samples;Min_cycle;Max_cycle;Signal;HPM_P1;HPM_P2
2022/02/28 00:00:45;;;;;;;24.63;11.32;;;;;;;0.16;55.68;101927.94;5041811;28;20558;-67
2022/02/28 00:03:12;;;;;;;16.80;6.97;;;;;;;0.16;55.42;101925.34;5041951;28;20442;-69
2022/02/28 00:05:39;;;;;;;19.88;8.57;;;;;;;0.15;55.54;101928.81;5033466;28;20144;-68
2022/02/28 00:08:06;;;;;;;21.85;9.93;;;;;;;0.12;55.63;101928.81;5036217;28;20103;-68
2022/02/28 00:10:33;;;;;;;19.67;8.48;;;;;;;0.13;55.81;101930.56;5031150;28;20048;-67
2022/02/28 00:13:00;;;;;;;17.50;8.55;;;;;;;0.13;55.90;101930.56;5027886;28;20049;-67
2022/02/28 00:15:29;;;;;;;12.18;7.57;;;;;;;0.12;55.77;101928.81;5034966;28;20048;-67
2022/02/28 00:17:56;;;;;;;13.75;7.93;;;;;;;0.10;55.73;101929.69;5029187;28;20427;-67
2022/02/28 00:20:23;;;;;;;15.07;7.75;;;;;;;0.06;55.90;101933.19;5044084;28;20688;-70
2022/02/28 00:22:51;;;;;;;19.67;7.50;;;;;;;0.04;55.82;101924.50;5042850;28;20047;-70
2022/02/28 00:25:18;;;;;;;17.75;8.30;;;;;;;0.05;55.60;101921.03;5043465;28;20104;-69
2022/02/28 00:27:45;;;;;;;17.13;9.00;;;;;;;0.03;55.98;101917.59;5043356;28;20049;-68
2022/02/28 00:30:13;;;;;;;13.57;8.07;;;;;;;0.01;55.96;101927.13;5043591;28;20045;-68
2022/02/28 00:32:41;;;;;;;17.00;8.40;;;;;;;-0.02;55.69;101917.56;5044138;28;20044;-68
2022/02/28 00:35:10;;;;;;;23.77;9.32;;;;;;;-0.04;55.89;101928.00;5041510;28;20037;-67
2022/02/28 00:37:37;;;;;;;17.77;9.55;;;;;;;-0.06;55.80;101928.84;5043281;28;20060;-67
2022/02/28 00:40:06;;;;;;;19.52;8.20;;;;;;;-0.07;55.80;101930.59;5044448;28;20128;-67
2022/02/28 00:42:33;;;;;;;20.73;8.63;;;;;;;-0.09;56.15;101929.72;5043335;28;20084;-72
2022/02/28 00:45:00;;;;;;;11.82;6.95;;;;;;;-0.09;55.82;101939.22;5044927;28;20041;-73
2022/02/28 00:47:27;;;;;;;16.15;7.40;;;;;;;-0.10;55.85;101946.16;5045034;28;20051;-73
2022/02/28 00:49:56;;;;;;;12.30;6.57;;;;;;;-0.13;56.20;101947.91;5031765;28;20052;-72
2022/02/28 00:52:23;;;;;;;12.38;7.20;;;;;;;-0.16;56.08;101942.72;5037099;28;20084;-71
2022/02/28 00:54:50;;;;;;;14.73;7.55;;;;;;;-0.18;56.35;101944.44;5040229;28;20048;-70
2022/02/28 00:57:17;;;;;;;16.42;7.97;;;;;;;-0.22;56.22;101936.69;5035068;28;20496;-70
2022/02/28 00:59:44;;;;;;;11.00;6.68;;;;;;;-0.26;56.06;101940.13;5033623;28;20456;-68
2022/02/28 01:02:11;;;;;;;15.57;8.45;;;;;;;-0.28;56.28;101941.84;5025371;28;20131;-68
2022/02/28 01:04:38;;;;;;;16.10;7.70;;;;;;;-0.30;56.28;101929.75;5025000;28;20049;-73
2022/02/28 01:07:06;;;;;;;10.10;6.28;;;;;;;-0.33;56.29;101935.78;5024601;28;20370;-68
2022/02/28 01:09:34;;;;;;;18.15;7.30;;;;;;;-0.36;56.35;101928.03;5025002;28;20052;-68
2022/02/28 01:12:03;;;;;;;15.77;6.07;;;;;;;-0.40;56.41;101923.69;5037517;28;20048;-67
2022/02/28 01:14:31;;;;;;;19.48;7.53;;;;;;;-0.40;56.45;101918.50;5041398;28;20058;-68
2022/02/28 01:16:57;;;;;;;13.68;7.55;;;;;;;-0.43;56.27;101923.69;5043856;28;20069;-69
2022/02/28 01:19:24;;;;;;;10.98;6.97;;;;;;;-0.45;56.56;101915.91;5042818;28;20550;-69
2022/02/28 01:21:51;;;;;;;13.40;7.32;;;;;;;-0.46;56.47;101916.75;5037814;28;20049;-70
2022/02/28 01:24:20;;;;;;;13.75;5.75;;;;;;;-0.47;56.38;101915.06;5032428;28;20109;-65
2022/02/28 01:26:48;;;;;;;12.88;6.68;;;;;;;-0.48;56.49;101909.84;5037393;28;20052;-70
2022/02/28 01:29:15;;;;;;;11.07;6.20;;;;;;;-0.48;56.42;101904.66;5036098;28;20088;-68
2022/02/28 01:31:42;;;;;;;14.07;6.95;;;;;;;-0.51;56.59;101910.69;5037086;28;20073;-68
2022/02/28 01:34:09;;;;;;;18.25;8.32;;;;;;;-0.51;56.87;101899.47;5040660;28;20125;-71
2022/02/28 01:36:36;;;;;;;16.30;7.65;;;;;;;-0.52;56.71;101905.50;5071860;28;20075;-71
2022/02/28 01:39:05;;;;;;;16.10;7.30;;;;;;;-0.53;56.80;101903.78;5039489;28;20132;-70
2022/02/28 01:41:33;;;;;;;12.07;6.25;;;;;;;-0.55;56.75;101901.19;5044260;28;20069;-67
2022/02/28 01:44:00;;;;;;;16.67;7.95;;;;;;;-0.55;56.87;101905.53;5045139;28;20096;-67
2022/02/28 01:46:27;;;;;;;16.25;7.05;;;;;;;-0.59;56.58;101913.31;5051288;28;20076;-67
2022/02/28 01:48:54;;;;;;;13.73;7.05;;;;;;;-0.60;56.51;101906.38;5050163;28;20069;-69
2022/02/28 01:51:21;;;;;;;15.73;7.55;;;;;;;-0.60;56.70;101908.97;5048968;28;20064;-67
2022/02/28 01:53:48;;;;;;;13.65;6.43;;;;;;;-0.60;56.88;101911.56;5048926;28;20124;-67
2022/02/28 01:56:15;;;;;;;18.27;6.90;;;;;;;-0.63;56.50;101906.38;5048834;28;20314;-69
2022/02/28 01:58:44;;;;;;;11.18;5.93;;;;;;;-0.64;56.91;101911.56;5049809;28;20160;-69
2022/02/28 02:01:11;;;;;;;11.23;6.35;;;;;;;-0.66;56.88;101911.56;5046244;28;20476;-67
2022/02/28 02:03:38;;;;;;;13.23;6.80;;;;;;;-0.68;56.94;101910.72;5031635;28;20124;-69
2022/02/28 02:06:09;;;;;;;11.32;6.47;;;;;;;-0.71;56.81;101902.06;5029644;28;20076;-67
2022/02/28 02:08:36;;;;;;;12.68;6.68;;;;;;;-0.71;56.68;101908.09;5028338;28;20046;-69
2022/02/28 02:11:03;;;;;;;10.57;6.07;;;;;;;-0.74;56.95;101915.88;5028655;28;20064;-67
2022/02/28 02:13:32;;;;;;;15.35;5.80;;;;;;;-0.74;57.05;101910.69;5031161;28;20185;-67
2022/02/28 02:16:01;;;;;;;16.98;7.90;;;;;;;-0.77;57.29;101913.31;5028623;28;20052;-70
2022/02/28 02:18:28;;;;;;;19.50;9.43;;;;;;;-0.78;56.87;101912.41;5028310;28;20054;-68
2022/02/28 02:20:57;;;;;;;20.27;9.02;;;;;;;-0.79;56.86;101923.66;5028284;28;20125;-68
2022/02/28 02:23:27;;;;;;;14.15;7.70;;;;;;;-0.80;57.02;101921.06;5027561;28;20057;-71
2022/02/28 02:25:55;;;;;;;16.33;6.85;;;;;;;-0.81;57.07;101919.31;5027921;28;20072;-68
2022/02/28 02:28:22;;;;;;;20.38;8.02;;;;;;;-0.80;57.10;101923.66;5027637;28;20092;-66
2022/02/28 02:30:50;;;;;;;15.27;8.07;;;;;;;-0.82;57.18;101921.06;5027462;28;20448;-70
2022/02/28 02:33:17;;;;;;;11.98;6.20;;;;;;;-0.80;57.44;101926.25;5026909;28;20064;-68
2022/02/28 02:35:51;;;;;;;17.25;8.48;;;;;;;-0.83;57.54;101916.75;5026984;28;20124;-71
2022/02/28 02:38:20;;;;;;;10.57;5.93;;;;;;;-0.82;57.11;101921.06;5026453;28;20072;-66
2022/02/28 02:40:47;;;;;;;11.73;5.88;;;;;;;-0.83;57.28;101919.34;5026858;28;20045;-67
2022/02/28 02:43:14;;;;;;;15.38;7.10;;;;;;;-0.86;57.19;101916.75;5025862;28;20107;-66
2022/02/28 02:45:41;;;;;;;14.48;6.30;;;;;;;-0.87;57.51;101927.97;5025957;28;20128;-68
2022/02/28 02:48:13;;;;;;;14.23;7.60;;;;;;;-0.88;57.18;101920.19;5026967;28;20045;-67
2022/02/28 02:50:40;;;;;;;14.38;7.53;;;;;;;-0.92;57.47;101919.31;5026912;28;20456;-66
2022/02/28 02:53:07;;;;;;;17.45;6.57;;;;;;;-0.94;57.55;101928.81;5026153;28;20489;-69
2022/02/28 02:55:36;;;;;;;12.60;7.20;;;;;;;-0.94;57.53;101930.56;5026885;28;20477;-68
2022/02/28 02:58:03;;;;;;;13.57;5.95;;;;;;;-0.97;57.47;101921.06;5026822;28;20053;-67
2022/02/28 03:00:30;;;;;;;19.27;7.85;;;;;;;-1.01;57.47;101917.59;5026172;28;20784;-65
2022/02/28 03:02:57;;;;;;;13.65;7.03;;;;;;;-1.01;57.44;101925.38;5026294;28;20045;-67
2022/02/28 03:05:24;;;;;;;12.25;6.30;;;;;;;-1.03;57.68;101924.47;5026524;28;20113;-67
2022/02/28 03:07:52;;;;;;;8.82;6.65;;;;;;;-1.04;57.57;101929.69;5028856;28;20049;-67
2022/02/28 03:10:19;;;;;;;12.60;7.22;;;;;;;-1.06;57.61;101919.31;5027201;28;20466;-71
2022/02/28 03:12:47;;;;;;;14.20;8.55;;;;;;;-1.08;57.85;101918.44;5024306;28;20124;-67
2022/02/28 03:15:14;;;;;;;14.00;6.53;;;;;;;-1.09;57.71;101921.03;5026406;28;20673;-70
2022/02/28 03:17:41;;;;;;;20.85;6.82;;;;;;;-1.08;57.59;101918.44;5025825;28;20485;-70
2022/02/28 03:20:09;;;;;;;13.27;5.65;;;;;;;-1.09;57.64;101921.88;5025793;28;20122;-67
2022/02/28 03:22:36;;;;;;;16.52;6.70;;;;;;;-1.11;57.50;101923.59;5026198;28;20050;-68
2022/02/28 03:25:05;;;;;;;12.52;6.20;;;;;;;-1.12;57.95;101923.59;5025711;28;20046;-69
2022/02/28 03:27:32;;;;;;;13.80;5.82;;;;;;;-1.15;57.73;101924.47;5025176;28;20049;-68
2022/02/28 03:30:01;;;;;;;19.35;7.47;;;;;;;-1.13;57.57;101921.84;5026044;28;20041;-68
2022/02/28 03:32:28;;;;;;;14.80;8.07;;;;;;;-1.16;57.88;101918.38;5026051;28;20602;-68
2022/02/28 03:34:55;;;;;;;21.08;7.80;;;;;;;-1.17;57.76;101923.56;5025828;28;20056;-69
2022/02/28 03:37:22;;;;;;;13.45;7.47;;;;;;;-1.18;57.84;101919.25;5025152;28;20472;-68
2022/02/28 03:39:49;;;;;;;13.05;6.38;;;;;;;-1.17;57.93;101919.28;5025012;28;20045;-68
2022/02/28 03:42:16;;;;;;;14.18;6.57;;;;;;;-1.17;57.74;101918.38;5025349;28;20045;-67
2022/02/28 03:44:43;;;;;;;19.38;7.78;;;;;;;-1.19;57.71;101925.28;5023451;28;20513;-67
2022/02/28 03:47:12;;;;;;;12.98;7.07;;;;;;;-1.20;57.91;101914.06;5024915;28;20041;-67
2022/02/28 03:49:39;;;;;;;15.23;7.68;;;;;;;-1.24;57.92;101909.75;5024798;28;20124;-69
2022/02/28 03:52:07;;;;;;;14.48;6.35;;;;;;;-1.25;57.89;101920.97;5026083;28;20045;-70
2022/02/28 03:54:34;;;;;;;10.52;7.10;;;;;;;-1.28;57.75;101920.09;5024601;28;20045;-64
2022/02/28 03:57:01;;;;;;;13.32;6.20;;;;;;;-1.30;57.73;101925.25;5025811;28;20092;-68
2022/02/28 03:59:28;;;;;;;11.38;5.93;;;;;;;-1.32;58.06;101924.41;5024946;28;20133;-70
2022/02/28 04:01:55;;;;;;;13.50;6.35;;;;;;;-1.33;58.13;101919.19;5024268;28;20257;-69
2022/02/28 04:04:23;;;;;;;12.93;6.32;;;;;;;-1.36;58.03;101925.25;5025570;28;20099;-71
2022/02/28 04:06:50;;;;;;;16.90;7.75;;;;;;;-1.37;58.03;101921.81;5024619;28;20052;-68
2022/02/28 04:09:18;;;;;;;12.73;6.15;;;;;;;-1.38;57.96;101920.06;5024236;28;20042;-70
2022/02/28 04:11:45;;;;;;;12.23;6.40;;;;;;;-1.40;58.17;101923.53;5024786;28;20045;-69
2022/02/28 04:14:12;;;;;;;12.80;6.28;;;;;;;-1.43;57.95;101921.75;5022908;28;20446;-69
2022/02/28 04:16:39;;;;;;;9.85;5.53;;;;;;;-1.44;58.22;101920.03;5024501;28;20052;-71
2022/02/28 04:19:06;;;;;;;12.60;7.25;;;;;;;-1.44;58.28;101924.34;5025245;28;20139;-70
2022/02/28 04:21:34;;;;;;;18.67;7.60;;;;;;;-1.46;58.24;101921.78;5025352;28;20132;-70
2022/02/28 04:24:01;;;;;;;19.60;9.10;;;;;;;-1.47;58.33;101932.97;5025048;28;20045;-70
2022/02/28 04:26:28;;;;;;;15.25;7.07;;;;;;;-1.48;58.10;101932.97;5025019;28;20353;-70
2022/02/28 04:28:55;;;;;;;11.88;6.78;;;;;;;-1.50;58.05;101939.88;5025450;28;20129;-71
2022/02/28 04:31:22;;;;;;;20.25;8.35;;;;;;;-1.54;58.32;101944.19;5024131;28;20401;-69
2022/02/28 04:33:49;;;;;;;13.88;6.90;;;;;;;-1.58;58.36;101945.03;5024577;28;20061;-68
2022/02/28 04:36:16;;;;;;;13.52;7.40;;;;;;;-1.59;58.38;101953.66;5024410;28;20507;-70
2022/02/28 04:38:44;;;;;;;17.52;7.85;;;;;;;-1.62;58.30;101951.94;5024864;28;20120;-70
2022/02/28 04:41:11;;;;;;;16.90;9.05;;;;;;;-1.62;58.51;101945.84;5024231;28;20136;-69
2022/02/28 04:43:38;;;;;;;14.02;6.60;;;;;;;-1.64;58.51;101955.34;5022186;28;20049;-69
2022/02/28 04:46:05;;;;;;;13.68;6.45;;;;;;;-1.67;58.34;101953.63;5034929;28;20099;-70
2022/02/28 04:48:32;;;;;;;18.77;8.05;;;;;;;-1.68;58.54;101951.00;5044085;28;20053;-68
2022/02/28 04:50:59;;;;;;;14.98;7.68;;;;;;;-1.68;58.36;101951.88;5044349;28;20396;-68
2022/02/28 04:53:26;;;;;;;16.58;6.20;;;;;;;-1.69;58.29;101950.16;5043741;28;20049;-67
2022/02/28 04:55:58;;;;;;;17.02;7.13;;;;;;;-1.68;58.56;101959.66;5043861;28;20067;-67
2022/02/28 04:58:25;;;;;;;10.13;6.90;;;;;;;-1.70;58.35;101957.91;5043037;28;20110;-68
2022/02/28 05:00:52;;;;;;;15.05;7.53;;;;;;;-1.73;58.66;101957.03;5043117;28;20140;-68
2022/02/28 05:03:19;;;;;;;15.27;7.68;;;;;;;-1.74;58.42;101957.88;5043385;28;20053;-68
2022/02/28 05:05:46;;;;;;;12.35;6.43;;;;;;;-1.74;58.41;101957.88;5042607;28;20044;-71
2022/02/28 05:08:13;;;;;;;14.07;7.05;;;;;;;-1.75;58.77;101953.59;5043336;28;20041;-67
2022/02/28 05:10:40;;;;;;;16.83;7.07;;;;;;;-1.75;58.80;101957.88;5042786;28;20051;-68
2022/02/28 05:13:08;;;;;;;16.08;7.43;;;;;;;-1.77;58.63;101954.41;5040401;28;20084;-68
2022/02/28 05:15:35;;;;;;;23.13;9.27;;;;;;;-1.77;58.82;101957.88;5042925;28;20404;-71
2022/02/28 05:18:02;;;;;;;14.65;9.55;;;;;;;-1.78;58.69;101965.66;5044442;28;20396;-69
2022/02/28 05:20:29;;;;;;;16.23;8.20;;;;;;;-1.81;58.85;101956.13;5047675;28;20148;-68
2022/02/28 05:22:56;;;;;;;14.20;7.75;;;;;;;-1.80;58.55;101962.16;5048748;28;20049;-71
2022/02/28 05:25:24;;;;;;;20.00;8.25;;;;;;;-1.81;58.91;101963.88;5048487;28;20051;-70
2022/02/28 05:27:51;;;;;;;18.92;9.73;;;;;;;-1.83;58.54;101965.59;5047671;28;20076;-71
2022/02/28 05:30:19;;;;;;;15.10;9.18;;;;;;;-1.83;58.77;101970.78;5058979;28;20083;-71
2022/02/28 05:32:46;;;;;;;11.82;7.53;;;;;;;-1.83;58.61;101973.38;5049263;28;20053;-68
2022/02/28 05:35:14;;;;;;;13.32;8.07;;;;;;;-1.83;58.54;101972.53;5048713;28;20747;-70
2022/02/28 05:37:41;;;;;;;13.27;8.85;;;;;;;-1.84;58.82;101971.63;5047631;28;20048;-68
2022/02/28 05:40:10;;;;;;;16.90;8.27;;;;;;;-1.83;59.00;101981.16;5047381;28;20092;-68
2022/02/28 05:42:39;;;;;;;11.77;6.97;;;;;;;-1.82;58.54;101979.41;5045248;28;20397;-72
2022/02/28 05:45:07;;;;;;;18.30;7.97;;;;;;;-1.81;58.87;101986.34;5047208;28;20048;-73
2022/02/28 05:47:36;;;;;;;17.58;9.15;;;;;;;-1.79;58.75;101985.47;5046324;28;20131;-70
2022/02/28 05:50:03;;;;;;;15.13;10.88;;;;;;;-1.77;58.69;101988.09;5047012;28;20129;-72
2022/02/28 05:52:30;;;;;;;17.92;9.00;;;;;;;-1.76;58.60;101989.84;5046550;28;20136;-69
2022/02/28 05:54:57;;;;;;;16.55;7.13;;;;;;;-1.75;58.74;101987.25;5046143;28;20041;-70
2022/02/28 05:57:25;;;;;;;17.30;10.82;;;;;;;-1.71;58.58;102002.78;5046518;28;20091;-70
2022/02/28 05:59:52;;;;;;;16.25;10.25;;;;;;;-1.68;58.96;102002.84;5046600;28;20045;-71
2022/02/28 06:02:19;;;;;;;22.13;11.10;;;;;;;-1.64;58.63;102000.28;5047541;28;20083;-73
2022/02/28 06:04:47;;;;;;;23.83;12.38;;;;;;;-1.62;58.71;101998.56;5047121;28;20051;-73
2022/02/28 06:07:14;;;;;;;22.27;8.43;;;;;;;-1.58;58.53;101996.84;5046219;28;20103;-72
2022/02/28 06:09:41;;;;;;;14.30;8.07;;;;;;;-1.52;58.58;101993.44;5045621;28;20045;-68
2022/02/28 06:12:09;;;;;;;12.40;7.50;;;;;;;-1.48;58.96;101996.03;5043100;28;20080;-69
2022/02/28 06:14:36;;;;;;;20.55;8.48;;;;;;;-1.41;58.89;102002.13;5035619;28;20567;-71
2022/02/28 06:17:03;;;;;;;14.55;8.88;;;;;;;-1.37;58.53;102009.03;5034410;28;21019;-72
2022/02/28 06:19:30;;;;;;;19.00;9.45;;;;;;;-1.29;58.66;102001.31;5045609;28;20511;-69
2022/02/28 06:21:59;;;;;;;16.02;9.82;;;;;;;-1.24;58.63;102007.38;5045840;28;20048;-71
2022/02/28 06:24:27;;;;;;;20.30;8.88;;;;;;;-1.17;58.74;101998.75;5046591;28;20128;-72
2022/02/28 06:26:54;;;;;;;14.63;9.18;;;;;;;-1.08;58.73;102006.59;5046442;28;20207;-71
2022/02/28 06:29:21;;;;;;;12.65;7.82;;;;;;;-1.02;58.47;102009.22;5044783;28;20092;-71
2022/02/28 06:31:48;;;;;;;24.45;11.90;;;;;;;-0.95;58.69;102012.69;5045360;28;20076;-70
2022/02/28 06:34:15;;;;;;;22.92;9.63;;;;;;;-0.90;58.88;102005.81;5046686;28;20051;-70
2022/02/28 06:36:42;;;;;;;28.80;10.48;;;;;;;-0.81;58.59;102010.13;5045678;28;20501;-70
2022/02/28 06:39:11;;;;;;;19.98;10.60;;;;;;;-0.73;58.88;102011.03;5045359;28;20136;-69
2022/02/28 06:41:38;;;;;;;16.83;9.88;;;;;;;-0.65;58.78;102011.94;5044386;28;20634;-71
2022/02/28 06:44:08;;;;;;;21.25;8.68;;;;;;;-0.56;58.52;102015.38;5042460;28;20090;-70
2022/02/28 06:46:35;;;;;;;25.02;9.25;;;;;;;-0.52;58.63;102012.81;5044949;28;20067;-71
2022/02/28 06:49:02;;;;;;;23.08;8.75;;;;;;;-0.46;59.00;102019.75;5043059;28;20491;-70
2022/02/28 06:51:29;;;;;;;21.15;10.95;;;;;;;-0.41;58.58;102013.69;5042923;28;20144;-73
2022/02/28 06:53:56;;;;;;;16.52;8.60;;;;;;;-0.34;58.61;102022.34;5045080;28;20061;-69
2022/02/28 06:56:24;;;;;;;20.58;10.82;;;;;;;-0.27;59.07;102028.41;5042676;28;20055;-70
2022/02/28 06:58:51;;;;;;;17.80;8.98;;;;;;;-0.23;59.13;102036.22;5042526;28;20056;-70
2022/02/28 07:01:18;;;;;;;16.55;7.75;;;;;;;-0.13;58.98;102034.47;5044410;28;20083;-72
2022/02/28 07:03:45;;;;;;;12.63;9.82;;;;;;;-0.09;58.76;102040.53;5041165;28;20385;-70
2022/02/28 07:06:13;;;;;;;33.30;10.07;;;;;;;-0.03;58.82;102040.56;5042905;28;20071;-70
2022/02/28 07:08:41;;;;;;;19.20;9.98;;;;;;;0.07;58.99;102044.00;5043087;28;20491;-71
2022/02/28 07:11:09;;;;;;;19.30;9.05;;;;;;;0.15;58.79;102037.94;5042918;28;20144;-70
2022/02/28 07:13:37;;;;;;;23.42;9.10;;;;;;;0.23;58.77;102043.13;5041523;28;20511;-70
2022/02/28 07:16:05;;;;;;;15.55;7.82;;;;;;;0.33;58.48;102042.25;5042995;28;20075;-70
2022/02/28 07:18:32;;;;;;;15.25;9.27;;;;;;;0.44;58.73;102049.19;5042752;28;20607;-70
2022/02/28 07:20:59;;;;;;;14.38;7.55;;;;;;;0.51;58.65;102051.75;5043077;28;20045;-69
2022/02/28 07:23:26;;;;;;;17.85;9.20;;;;;;;0.55;58.37;102052.63;5041061;28;20059;-70
2022/02/28 07:25:53;;;;;;;15.32;7.95;;;;;;;0.65;58.55;102056.94;5041624;28;20067;-71
2022/02/28 07:28:20;;;;;;;15.13;8.30;;;;;;;0.72;58.53;102055.16;5042953;28;20075;-73
2022/02/28 07:30:48;;;;;;;14.77;7.78;;;;;;;0.75;58.00;102053.41;5042546;28;20048;-71
2022/02/28 07:33:17;;;;;;;21.33;9.95;;;;;;;0.77;58.08;102066.44;5043023;28;20693;-69
2022/02/28 07:35:44;;;;;;;21.85;10.38;;;;;;;0.82;58.02;102064.69;5044226;28;20052;-70
2022/02/28 07:38:12;;;;;;;19.33;11.25;;;;;;;0.86;57.75;102057.72;5041571;28;20076;-70
2022/02/28 07:40:39;;;;;;;15.95;10.32;;;;;;;0.91;57.70;102064.66;5041364;28;20041;-72
2022/02/28 07:43:06;;;;;;;9.45;5.57;;;;;;;1.02;57.82;102063.75;5041503;28;20132;-70
2022/02/28 07:45:33;;;;;;;18.30;8.93;;;;;;;1.05;57.27;102064.63;5041297;28;20051;-70
2022/02/28 07:48:02;;;;;;;19.55;10.05;;;;;;;1.14;57.35;102061.13;5042728;28;20049;-69
2022/02/28 07:50:29;;;;;;;17.73;8.65;;;;;;;1.29;57.60;102065.38;5043729;28;20055;-69
2022/02/28 07:52:58;;;;;;;24.85;12.68;;;;;;;1.35;56.98;102067.94;5042361;28;20045;-71
2022/02/28 07:55:25;;;;;;;12.82;7.95;;;;;;;1.45;56.99;102074.84;5042911;28;20045;-70
2022/02/28 07:57:52;;;;;;;17.50;9.65;;;;;;;1.53;57.19;102072.19;5043414;28;20049;-71
2022/02/28 08:00:19;;;;;;;20.13;10.73;;;;;;;1.63;56.65;102070.41;5041912;28;20127;-70
2022/02/28 08:02:46;;;;;;;17.15;9.10;;;;;;;1.70;56.79;102075.56;5042702;28;20041;-71
2022/02/28 08:05:15;;;;;;;15.05;7.80;;;;;;;1.76;56.52;102071.19;5042774;28;20128;-71
2022/02/28 08:07:42;;;;;;;13.88;8.07;;;;;;;1.86;56.47;102078.06;5042412;28;20584;-71
2022/02/28 08:10:10;;;;;;;18.90;8.55;;;;;;;1.92;56.47;102078.88;5043444;28;20041;-70
2022/02/28 08:12:37;;;;;;;14.77;8.20;;;;;;;1.99;56.30;102078.84;5043662;28;20493;-71
2022/02/28 08:15:05;;;;;;;10.57;6.53;;;;;;;2.04;56.19;102077.94;5041923;28;20055;-70
2022/02/28 08:17:32;;;;;;;14.93;7.43;;;;;;;2.15;55.95;102079.59;5043998;28;20049;-70
2022/02/28 08:19:59;;;;;;;14.02;7.80;;;;;;;2.25;55.83;102086.44;5044057;28;20124;-70
2022/02/28 08:22:28;;;;;;;10.32;6.25;;;;;;;2.35;55.76;102093.31;5043298;28;20392;-71
2022/02/28 08:24:55;;;;;;;15.55;8.93;;;;;;;2.38;55.42;102092.44;5042698;28;20523;-71
2022/02/28 08:27:22;;;;;;;16.05;8.55;;;;;;;2.45;55.38;102091.50;5045138;28;20437;-68
2022/02/28 08:54:23;;;;;;;11.90;7.13;;;;;;;3.40;53.20;102094.78;5044008;28;20060;-70
2022/02/28 08:56:51;;;;;;;9.60;5.35;;;;;;;3.50;53.11;102101.63;5029562;28;20228;-71
2022/02/28 08:59:18;;;;;;;14.88;7.03;;;;;;;3.54;52.56;102095.47;5028820;28;20133;-73
2022/02/28 09:01:45;;;;;;;16.30;6.70;;;;;;;3.71;52.44;102105.69;5024257;28;20041;-69
2022/02/28 09:04:12;;;;;;;11.85;7.35;;;;;;;3.83;52.21;102105.53;5023588;28;20071;-69
2022/02/28 09:06:39;;;;;;;11.05;5.97;;;;;;;3.96;52.15;102100.97;5024756;28;20045;-69
2022/02/28 09:09:06;;;;;;;7.15;5.07;;;;;;;4.19;51.87;102105.81;5025575;28;20069;-72
2022/02/28 09:11:34;;;;;;;15.18;7.80;;;;;;;4.29;51.35;102101.31;5024463;28;20073;-70
2022/02/28 09:14:01;;;;;;;9.93;5.32;;;;;;;4.47;51.17;102105.38;5022706;28;20049;-72
2022/02/28 09:16:31;;;;;;;7.85;5.30;;;;;;;4.71;51.06;102101.44;5024459;28;20045;-73
2022/02/28 09:18:59;;;;;;;13.35;6.53;;;;;;;5.01;50.57;102106.16;5024855;28;20053;-69
2022/02/28 09:21:27;;;;;;;13.02;5.63;;;;;;;5.11;50.14;102105.94;5024437;28;20049;-73
2022/02/28 09:23:54;;;;;;;9.77;5.47;;;;;;;5.33;50.07;102111.59;5023050;28;20070;-70
2022/02/28 09:26:22;;;;;;;10.57;6.28;;;;;;;5.49;49.61;102113.88;5024202;28;20140;-69
2022/02/28 09:28:50;;;;;;;9.98;5.10;;;;;;;5.60;49.49;102119.78;5024692;28;20049;-70
2022/02/28 09:31:17;;;;;;;10.88;5.13;;;;;;;5.64;49.22;102110.94;5022593;28;20088;-70
2022/02/28 09:33:44;;;;;;;10.05;5.88;;;;;;;5.83;48.77;102121.84;5024710;28;20119;-71
2022/02/28 09:36:11;;;;;;;8.63;4.53;;;;;;;6.00;48.08;102115.44;5024941;28;20088;-72
2022/02/28 09:38:38;;;;;;;9.43;4.82;;;;;;;6.05;47.82;102116.16;5024031;28;20045;-70
2022/02/28 09:41:06;;;;;;;10.52;4.22;;;;;;;6.13;47.72;102112.44;5024331;28;20085;-70
2022/02/28 09:43:34;;;;;;;11.00;4.63;;;;;;;6.20;47.27;102110.53;5022085;28;20049;-73
2022/02/28 09:46:05;;;;;;;22.45;10.60;;;;;;;6.21;46.96;102112.28;5023241;28;20052;-74
2022/02/28 09:48:32;;;;;;;14.48;7.35;;;;;;;6.05;47.13;102116.16;5024591;28;20058;-75
2022/02/28 09:51:00;;;;;;;11.88;5.75;;;;;;;6.18;47.00;102114.13;5025321;28;20107;-70
2022/02/28 09:53:27;;;;;;;8.60;4.90;;;;;;;6.18;47.05;102114.97;5023097;28;20049;-68
2022/02/28 09:55:55;;;;;;;6.88;4.22;;;;;;;6.24;46.93;102112.19;5056222;28;20433;-68
2022/02/28 09:58:28;;;;;;;9.00;4.45;;;;;;;6.20;46.17;102105.31;5056236;28;20049;-75
2022/02/28 10:00:56;;;;;;;7.32;3.25;;;;;;;6.20;46.09;102107.94;5023809;28;20041;-69
2022/02/28 10:03:25;;;;;;;5.05;2.63;;;;;;;6.23;45.84;102114.84;5024480;28;20652;-69
2022/02/28 10:05:58;;;;;;;7.85;3.08;;;;;;;6.20;45.54;102110.53;5023373;28;20073;-68
2022/02/28 10:08:26;;;;;;;5.82;2.30;;;;;;;6.26;45.22;102105.13;5025617;28;20244;-70
2022/02/28 10:10:53;;;;;;;5.43;2.72;;;;;;;6.18;44.53;102109.72;5023562;28;20069;-70
2022/02/28 10:13:28;;;;;;;4.63;2.85;;;;;;;6.16;44.33;102103.66;5023382;28;20797;-69
2022/02/28 10:15:56;;;;;;;6.05;3.78;;;;;;;6.17;44.17;102108.00;5023978;28;20057;-73
2022/02/28 10:18:27;;;;;;;4.47;2.50;;;;;;;5.86;44.39;102116.56;5024180;28;20048;-74
2022/02/28 10:20:54;;;;;;;3.08;2.53;;;;;;;5.65;44.67;102117.03;5023093;28;20051;-68
2022/02/28 10:23:24;;;;;;;8.38;3.30;;;;;;;5.48;44.39;102115.66;5023713;28;20049;-70
2022/02/28 10:25:53;;;;;;;4.70;3.00;;;;;;;5.35;44.59;102122.91;5023581;28;20049;-70
2022/02/28 10:28:22;;;;;;;8.25;3.47;;;;;;;5.34;44.66;102118.53;5022215;28;20120;-74
2022/02/28 10:30:57;;;;;;;4.30;2.10;;;;;;;5.28;44.62;102115.22;5024229;28;20054;-70
2022/02/28 10:33:31;;;;;;;5.88;2.17;;;;;;;5.38;44.09;102116.72;5024167;28;20055;-74
2022/02/28 10:36:13;;;;;;;5.35;3.25;;;;;;;5.35;43.36;102119.44;5023337;28;20512;-71
2022/02/28 10:38:45;;;;;;;9.00;3.63;;;;;;;5.39;43.70;102115.00;5022665;28;20041;-70
2022/02/28 10:41:24;;;;;;;10.00;3.75;;;;;;;5.18;43.92;102122.38;5023274;28;20056;-69
2022/02/28 10:43:53;;;;;;;6.32;4.28;;;;;;;5.12;44.16;102123.38;5021364;28;20119;-70
2022/02/28 10:46:22;;;;;;;5.47;3.40;;;;;;;5.26;44.25;102124.88;5023210;28;20132;-70
2022/02/28 10:49:01;;;;;;;4.70;2.35;;;;;;;5.35;43.97;102124.69;5022356;28;20049;-71
2022/02/28 10:51:30;;;;;;;4.32;3.72;;;;;;;5.22;43.86;102121.44;5022338;28;20052;-70
2022/02/28 10:54:14;;;;;;;5.13;3.28;;;;;;;5.37;43.52;102125.50;5021591;28;20049;-69
2022/02/28 10:56:53;;;;;;;6.90;3.72;;;;;;;5.62;42.67;102117.09;5021565;28;20068;-69
2022/02/28 10:59:21;;;;;;;3.25;2.28;;;;;;;5.65;42.99;102123.13;5023292;28;20045;-69
2022/02/28 11:01:49;;;;;;;4.47;3.00;;;;;;;5.52;43.41;102122.53;5023307;28;20037;-68
2022/02/28 11:04:29;;;;;;;5.53;2.67;;;;;;;5.62;43.50;102115.34;5021500;28;20049;-68
2022/02/28 11:06:56;;;;;;;4.75;2.78;;;;;;;5.82;43.05;102119.31;5021697;28;20540;-71
2022/02/28 11:09:36;;;;;;;2.63;2.33;;;;;;;6.05;42.70;102116.16;5021280;28;20148;-69
2022/02/28 11:12:26;;;;;;;3.95;2.28;;;;;;;6.43;42.09;102117.00;5021054;28;20132;-68
2022/02/28 11:14:56;;;;;;;7.13;2.33;;;;;;;6.83;41.44;102121.22;5020744;28;20050;-69
2022/02/28 11:17:24;;;;;;;5.72;2.15;;;;;;;7.18;41.03;102119.34;5020715;28;20148;-68
2022/02/28 11:19:53;;;;;;;4.20;3.15;;;;;;;7.29;40.43;102109.41;5020681;28;20050;-68
2022/02/28 11:22:21;;;;;;;6.45;3.20;;;;;;;7.42;40.14;102109.91;5038247;28;20046;-68
2022/02/28 11:24:48;;;;;;;6.57;2.75;;;;;;;7.49;39.85;102102.69;5021484;28;20049;-70
2022/02/28 11:27:16;;;;;;;6.40;2.60;;;;;;;7.53;39.68;102104.34;5022146;28;20051;-69
2022/02/28 11:29:44;;;;;;;4.35;2.00;;;;;;;7.71;39.07;102102.94;5021435;28;20543;-70
2022/02/28 11:32:11;;;;;;;3.33;1.60;;;;;;;7.83;37.75;102111.28;5021465;28;20049;-73
2022/02/28 11:34:38;;;;;;;3.45;2.28;;;;;;;7.63;37.01;102113.66;5023679;28;20063;-71
2022/02/28 11:37:08;;;;;;;2.25;1.35;;;;;;;7.69;37.07;102102.97;5022914;28;20055;-70
2022/02/28 11:39:37;;;;;;;3.22;1.95;;;;;;;7.64;36.48;102104.88;5021485;28;20057;-73
2022/02/28 11:42:08;;;;;;;7.80;3.38;;;;;;;7.44;36.61;102108.97;5022357;28;20119;-71
2022/02/28 11:44:36;;;;;;;5.07;2.67;;;;;;;7.30;36.93;102100.63;5020349;28;20056;-71
2022/02/28 11:47:06;;;;;;;4.93;2.67;;;;;;;7.29;36.84;102109.41;5023529;28;20260;-68
2022/02/28 11:49:41;;;;;;;3.67;1.98;;;;;;;7.26;37.35;102115.63;5022983;28;20049;-69